sensor_id;sensor_type;location;lat;lon;timestamp;temperature;humidity
42489;DHT22;28118;52.388;9.452;2022-10-14T00:02:14;12.70;99.90
42489;DHT22;28118;52.388;9.452;2022-10-14T00:04:41;12.60;99.90
42489;DHT22;28118;52.388;9.452;2022-10-14T00:07:07;12.60;99.90
42489;DHT22;28118;52.388;9.452;2022-10-14T00:09:34;12.60;99.90
42489;DHT22;28118;52.388;9.452;2022-10-14T00:12:00;12.60;99.90
42489;DHT22;28118;52.388;9.452;2022-10-14T00:14:27;12.60;99.90
42489;DHT22;28118;52.388;9.452;2022-10-14T00:16:54;12.70;99.90
42489;DHT22;28118;52.388;9.452;2022-10-14T00:19:21;12.70;99.90
42489;DHT22;28118;52.388;9.452;2022-10-14T00:21:48;12.70;99.90
42489;DHT22;28118;52.388;9.452;2022-10-14T00:24:15;12.60;99.90
42489;DHT22;28118;52.388;9.452;2022-10-14T00:26:42;12.70;99.90
42489;DHT22;28118;52.388;9.452;2022-10-14T00:29:13;12.60;99.90
42489;DHT22;28118;52.388;9.452;2022-10-14T00:31:40;12.70;99.90
42489;DHT22;28118;52.388;9.452;2022-10-14T00:34:07;12.70;99.90
42489;DHT22;28118;52.388;9.452;2022-10-14T00:36:33;12.70;99.90
42489;DHT22;28118;52.388;9.452;2022-10-14T00:39:00;12.70;99.90
42489;DHT22;28118;52.388;9.452;2022-10-14T00:41:30;12.70;99.90
42489;DHT22;28118;52.388;9.452;2022-10-14T00:43:58;12.70;99.90
42489;DHT22;28118;52.388;9.452;2022-10-14T00:46:35;12.70;99.90
42489;DHT22;28118;52.388;9.452;2022-10-14T00:49:09;12.70;99.90
42489;DHT22;28118;52.388;9.452;2022-10-14T00:51:39;12.70;99.90
42489;DHT22;28118;52.388;9.452;2022-10-14T00:54:06;12.80;99.90
42489;DHT22;28118;52.388;9.452;2022-10-14T00:56:34;12.80;99.90
42489;DHT22;28118;52.388;9.452;2022-10-14T00:59:02;12.80;99.90
42489;DHT22;28118;52.388;9.452;2022-10-14T01:01:29;12.80;99.90
42489;DHT22;28118;52.388;9.452;2022-10-14T01:03:56;12.80;99.90
42489;DHT22;28118;52.388;9.452;2022-10-14T01:12:11;12.80;99.90
42489;DHT22;28118;52.388;9.452;2022-10-14T01:15:06;12.80;99.90
42489;DHT22;28118;52.388;9.452;2022-10-14T01:32:01;12.80;99.90
42489;DHT22;28118;52.388;9.452;2022-10-14T01:34:51;12.80;99.90
42489;DHT22;28118;52.388;9.452;2022-10-14T01:37:23;12.80;99.90
42489;DHT22;28118;52.388;9.452;2022-10-14T01:39:57;12.80;99.90
42489;DHT22;28118;52.388;9.452;2022-10-14T01:42:27;12.80;99.90
42489;DHT22;28118;52.388;9.452;2022-10-14T01:45:03;12.80;99.90
42489;DHT22;28118;52.388;9.452;2022-10-14T01:47:32;12.80;99.90
42489;DHT22;28118;52.388;9.452;2022-10-14T01:50:13;12.80;99.90
42489;DHT22;28118;52.388;9.452;2022-10-14T01:52:51;12.80;99.90
42489;DHT22;28118;52.388;9.452;2022-10-14T01:55:22;12.80;99.90
42489;DHT22;28118;52.388;9.452;2022-10-14T01:57:51;12.80;99.90
42489;DHT22;28118;52.388;9.452;2022-10-14T02:00:18;12.80;99.90
42489;DHT22;28118;52.388;9.452;2022-10-14T02:02:45;12.80;99.90
42489;DHT22;28118;52.388;9.452;2022-10-14T02:05:21;12.80;99.90
42489;DHT22;28118;52.388;9.452;2022-10-14T02:07:57;12.80;99.90
42489;DHT22;28118;52.388;9.452;2022-10-14T02:10:38;12.80;99.90
42489;DHT22;28118;52.388;9.452;2022-10-14T02:13:44;12.80;99.90
42489;DHT22;28118;52.388;9.452;2022-10-14T02:16:36;12.90;99.90
42489;DHT22;28118;52.388;9.452;2022-10-14T02:19:27;12.80;99.90
42489;DHT22;28118;52.388;9.452;2022-10-14T02:22:09;12.80;99.90
42489;DHT22;28118;52.388;9.452;2022-10-14T02:24:44;12.80;99.90
42489;DHT22;28118;52.388;9.452;2022-10-14T02:27:17;12.80;99.90
42489;DHT22;28118;52.388;9.452;2022-10-14T02:29:46;12.80;99.90
42489;DHT22;28118;52.388;9.452;2022-10-14T02:32:16;12.70;99.90
42489;DHT22;28118;52.388;9.452;2022-10-14T02:34:49;12.80;99.90
42489;DHT22;28118;52.388;9.452;2022-10-14T02:37:18;12.80;99.90
42489;DHT22;28118;52.388;9.452;2022-10-14T02:39:58;12.80;99.90
42489;DHT22;28118;52.388;9.452;2022-10-14T02:42:27;12.80;99.90
42489;DHT22;28118;52.388;9.452;2022-10-14T02:44:56;12.80;99.90
42489;DHT22;28118;52.388;9.452;2022-10-14T02:47:24;12.70;99.90
42489;DHT22;28118;52.388;9.452;2022-10-14T02:49:51;12.70;99.90
42489;DHT22;28118;52.388;9.452;2022-10-14T02:52:18;12.70;99.90
42489;DHT22;28118;52.388;9.452;2022-10-14T02:54:46;12.80;99.90
42489;DHT22;28118;52.388;9.452;2022-10-14T02:57:12;12.70;99.90
42489;DHT22;28118;52.388;9.452;2022-10-14T02:59:39;12.70;99.90
42489;DHT22;28118;52.388;9.452;2022-10-14T03:02:06;12.70;99.90
42489;DHT22;28118;52.388;9.452;2022-10-14T03:04:34;12.70;99.90
42489;DHT22;28118;52.388;9.452;2022-10-14T03:07:00;12.70;99.90
42489;DHT22;28118;52.388;9.452;2022-10-14T03:09:27;12.70;99.90
42489;DHT22;28118;52.388;9.452;2022-10-14T03:11:54;12.70;99.90
42489;DHT22;28118;52.388;9.452;2022-10-14T03:14:20;12.70;99.90
42489;DHT22;28118;52.388;9.452;2022-10-14T03:16:47;12.70;99.90
42489;DHT22;28118;52.388;9.452;2022-10-14T03:19:13;12.60;99.90
42489;DHT22;28118;52.388;9.452;2022-10-14T03:21:40;12.70;99.90
42489;DHT22;28118;52.388;9.452;2022-10-14T03:24:08;12.60;99.90
42489;DHT22;28118;52.388;9.452;2022-10-14T03:26:34;12.70;99.90
42489;DHT22;28118;52.388;9.452;2022-10-14T03:29:01;12.60;99.90
42489;DHT22;28118;52.388;9.452;2022-10-14T03:31:28;12.70;99.90
42489;DHT22;28118;52.388;9.452;2022-10-14T03:33:54;12.70;99.90
42489;DHT22;28118;52.388;9.452;2022-10-14T03:36:21;12.70;99.90
42489;DHT22;28118;52.388;9.452;2022-10-14T03:38:47;12.60;99.90
42489;DHT22;28118;52.388;9.452;2022-10-14T03:41:14;12.70;99.90
42489;DHT22;28118;52.388;9.452;2022-10-14T03:43:41;12.70;99.90
42489;DHT22;28118;52.388;9.452;2022-10-14T03:46:07;12.60;99.90
42489;DHT22;28118;52.388;9.452;2022-10-14T03:48:34;12.70;99.90
42489;DHT22;28118;52.388;9.452;2022-10-14T03:51:00;12.60;99.90
42489;DHT22;28118;52.388;9.452;2022-10-14T03:53:27;12.70;99.90
42489;DHT22;28118;52.388;9.452;2022-10-14T03:55:54;12.70;99.90
42489;DHT22;28118;52.388;9.452;2022-10-14T03:58:20;12.70;99.90
42489;DHT22;28118;52.388;9.452;2022-10-14T04:00:47;12.70;99.90
42489;DHT22;28118;52.388;9.452;2022-10-14T04:03:13;12.70;99.90
42489;DHT22;28118;52.388;9.452;2022-10-14T04:05:40;12.70;99.90
42489;DHT22;28118;52.388;9.452;2022-10-14T04:08:07;12.70;99.90
42489;DHT22;28118;52.388;9.452;2022-10-14T04:10:34;12.70;99.90
42489;DHT22;28118;52.388;9.452;2022-10-14T04:13:00;12.70;99.90
42489;DHT22;28118;52.388;9.452;2022-10-14T04:15:27;12.70;99.90
42489;DHT22;28118;52.388;9.452;2022-10-14T04:17:55;12.70;99.90
42489;DHT22;28118;52.388;9.452;2022-10-14T04:20:21;12.70;99.90
42489;DHT22;28118;52.388;9.452;2022-10-14T04:22:48;12.70;99.90
42489;DHT22;28118;52.388;9.452;2022-10-14T04:25:15;12.70;99.90
42489;DHT22;28118;52.388;9.452;2022-10-14T04:27:41;12.80;99.90
42489;DHT22;28118;52.388;9.452;2022-10-14T04:30:09;12.70;99.90
42489;DHT22;28118;52.388;9.452;2022-10-14T04:32:35;12.70;99.90
42489;DHT22;28118;52.388;9.452;2022-10-14T04:35:02;12.70;99.90
42489;DHT22;28118;52.388;9.452;2022-10-14T04:37:30;12.70;99.90
42489;DHT22;28118;52.388;9.452;2022-10-14T04:39:57;12.70;99.90
42489;DHT22;28118;52.388;9.452;2022-10-14T04:42:23;12.70;99.90
42489;DHT22;28118;52.388;9.452;2022-10-14T04:44:50;12.70;99.90
42489;DHT22;28118;52.388;9.452;2022-10-14T04:47:17;12.70;99.90
42489;DHT22;28118;52.388;9.452;2022-10-14T04:49:44;12.70;99.90
42489;DHT22;28118;52.388;9.452;2022-10-14T04:52:10;12.70;99.90
42489;DHT22;28118;52.388;9.452;2022-10-14T04:54:37;12.70;99.90
42489;DHT22;28118;52.388;9.452;2022-10-14T04:57:03;12.70;99.90
42489;DHT22;28118;52.388;9.452;2022-10-14T04:59:30;12.70;99.90
42489;DHT22;28118;52.388;9.452;2022-10-14T05:01:57;12.70;99.90
42489;DHT22;28118;52.388;9.452;2022-10-14T05:04:23;12.70;99.90
42489;DHT22;28118;52.388;9.452;2022-10-14T05:06:50;12.70;99.90
42489;DHT22;28118;52.388;9.452;2022-10-14T05:09:17;12.70;99.90
42489;DHT22;28118;52.388;9.452;2022-10-14T05:11:43;12.70;99.90
42489;DHT22;28118;52.388;9.452;2022-10-14T05:14:10;12.70;99.90
42489;DHT22;28118;52.388;9.452;2022-10-14T05:16:36;12.70;99.90
42489;DHT22;28118;52.388;9.452;2022-10-14T05:19:03;12.60;99.90
42489;DHT22;28118;52.388;9.452;2022-10-14T05:21:30;12.60;99.90
42489;DHT22;28118;52.388;9.452;2022-10-14T05:23:56;12.60;99.90
42489;DHT22;28118;52.388;9.452;2022-10-14T05:26:23;12.60;99.90
42489;DHT22;28118;52.388;9.452;2022-10-14T05:28:51;12.70;99.90
42489;DHT22;28118;52.388;9.452;2022-10-14T05:31:18;12.60;99.90
42489;DHT22;28118;52.388;9.452;2022-10-14T05:33:44;12.70;99.90
42489;DHT22;28118;52.388;9.452;2022-10-14T05:36:11;12.60;99.90
42489;DHT22;28118;52.388;9.452;2022-10-14T05:38:38;12.60;99.90
42489;DHT22;28118;52.388;9.452;2022-10-14T05:41:05;12.50;99.90
42489;DHT22;28118;52.388;9.452;2022-10-14T05:43:32;12.40;99.90
42489;DHT22;28118;52.388;9.452;2022-10-14T05:45:59;12.30;99.90
42489;DHT22;28118;52.388;9.452;2022-10-14T05:48:27;12.30;99.90
42489;DHT22;28118;52.388;9.452;2022-10-14T05:50:54;12.30;99.90
42489;DHT22;28118;52.388;9.452;2022-10-14T05:53:20;12.20;99.90
42489;DHT22;28118;52.388;9.452;2022-10-14T05:55:47;12.20;99.90
42489;DHT22;28118;52.388;9.452;2022-10-14T05:58:14;12.20;99.90
42489;DHT22;28118;52.388;9.452;2022-10-14T06:00:41;12.20;99.90
42489;DHT22;28118;52.388;9.452;2022-10-14T06:03:10;12.20;99.90
42489;DHT22;28118;52.388;9.452;2022-10-14T06:05:37;12.20;99.90
42489;DHT22;28118;52.388;9.452;2022-10-14T06:08:04;12.20;99.90
42489;DHT22;28118;52.388;9.452;2022-10-14T06:10:33;12.20;99.90
42489;DHT22;28118;52.388;9.452;2022-10-14T06:13:00;12.30;99.90
42489;DHT22;28118;52.388;9.452;2022-10-14T06:15:26;12.30;99.90
42489;DHT22;28118;52.388;9.452;2022-10-14T06:17:54;12.40;99.90
42489;DHT22;28118;52.388;9.452;2022-10-14T06:20:21;12.40;99.90
42489;DHT22;28118;52.388;9.452;2022-10-14T06:22:47;12.40;99.90
42489;DHT22;28118;52.388;9.452;2022-10-14T06:25:14;12.40;99.90
42489;DHT22;28118;52.388;9.452;2022-10-14T06:27:41;12.50;99.90
42489;DHT22;28118;52.388;9.452;2022-10-14T06:30:09;12.50;99.90
42489;DHT22;28118;52.388;9.452;2022-10-14T06:32:36;12.50;99.90
42489;DHT22;28118;52.388;9.452;2022-10-14T06:35:02;12.50;99.90
42489;DHT22;28118;52.388;9.452;2022-10-14T06:37:29;12.50;99.90
42489;DHT22;28118;52.388;9.452;2022-10-14T06:39:56;12.50;99.90
42489;DHT22;28118;52.388;9.452;2022-10-14T06:42:23;12.50;99.90
42489;DHT22;28118;52.388;9.452;2022-10-14T06:44:51;12.50;99.90
42489;DHT22;28118;52.388;9.452;2022-10-14T06:47:17;12.60;99.90
42489;DHT22;28118;52.388;9.452;2022-10-14T06:49:44;12.60;99.90
42489;DHT22;28118;52.388;9.452;2022-10-14T06:52:11;12.60;99.90
42489;DHT22;28118;52.388;9.452;2022-10-14T06:54:38;12.60;99.90
42489;DHT22;28118;52.388;9.452;2022-10-14T06:57:09;12.60;99.90
42489;DHT22;28118;52.388;9.452;2022-10-14T06:59:35;12.70;99.90
42489;DHT22;28118;52.388;9.452;2022-10-14T07:02:04;12.70;99.90
42489;DHT22;28118;52.388;9.452;2022-10-14T07:04:31;12.80;99.90
42489;DHT22;28118;52.388;9.452;2022-10-14T07:06:58;12.80;99.90
42489;DHT22;28118;52.388;9.452;2022-10-14T07:09:25;12.80;99.90
42489;DHT22;28118;52.388;9.452;2022-10-14T07:11:52;12.90;99.90
42489;DHT22;28118;52.388;9.452;2022-10-14T07:14:19;12.90;99.90
42489;DHT22;28118;52.388;9.452;2022-10-14T07:16:46;12.90;99.90
42489;DHT22;28118;52.388;9.452;2022-10-14T07:19:13;13.00;99.90
42489;DHT22;28118;52.388;9.452;2022-10-14T07:21:40;13.00;99.90
42489;DHT22;28118;52.388;9.452;2022-10-14T07:24:08;13.00;99.90
42489;DHT22;28118;52.388;9.452;2022-10-14T07:26:35;13.00;99.90
42489;DHT22;28118;52.388;9.452;2022-10-14T07:29:05;13.10;99.90
42489;DHT22;28118;52.388;9.452;2022-10-14T07:31:33;13.10;99.90
42489;DHT22;28118;52.388;9.452;2022-10-14T07:34:00;13.10;99.90
42489;DHT22;28118;52.388;9.452;2022-10-14T07:36:28;13.10;99.90
42489;DHT22;28118;52.388;9.452;2022-10-14T07:38:54;13.10;99.90
42489;DHT22;28118;52.388;9.452;2022-10-14T07:41:23;13.20;99.90
42489;DHT22;28118;52.388;9.452;2022-10-14T07:43:56;13.30;99.90
42489;DHT22;28118;52.388;9.452;2022-10-14T07:46:24;13.40;99.90
42489;DHT22;28118;52.388;9.452;2022-10-14T07:49:06;13.60;99.90
42489;DHT22;28118;52.388;9.452;2022-10-14T07:51:34;13.80;99.90
42489;DHT22;28118;52.388;9.452;2022-10-14T07:54:03;13.80;99.90
42489;DHT22;28118;52.388;9.452;2022-10-14T07:56:31;13.90;99.90
42489;DHT22;28118;52.388;9.452;2022-10-14T07:58:58;14.00;99.90
42489;DHT22;28118;52.388;9.452;2022-10-14T08:01:24;14.10;99.90
42489;DHT22;28118;52.388;9.452;2022-10-14T08:03:51;14.30;99.90
42489;DHT22;28118;52.388;9.452;2022-10-14T08:06:19;14.30;99.90
42489;DHT22;28118;52.388;9.452;2022-10-14T08:08:47;14.30;99.90
42489;DHT22;28118;52.388;9.452;2022-10-14T08:11:16;14.20;99.90
42489;DHT22;28118;52.388;9.452;2022-10-14T08:13:44;14.10;99.90
42489;DHT22;28118;52.388;9.452;2022-10-14T08:16:35;14.20;99.90
42489;DHT22;28118;52.388;9.452;2022-10-14T08:19:11;14.30;99.90
42489;DHT22;28118;52.388;9.452;2022-10-14T08:21:42;14.50;99.90
42489;DHT22;28118;52.388;9.452;2022-10-14T08:24:09;14.60;99.90
42489;DHT22;28118;52.388;9.452;2022-10-14T08:29:16;14.90;99.90
42489;DHT22;28118;52.388;9.452;2022-10-14T08:31:43;15.00;99.90
42489;DHT22;28118;52.388;9.452;2022-10-14T08:34:09;15.20;99.90
42489;DHT22;28118;52.388;9.452;2022-10-14T08:36:36;15.30;99.90
42489;DHT22;28118;52.388;9.452;2022-10-14T08:39:03;15.50;99.90
42489;DHT22;28118;52.388;9.452;2022-10-14T08:54:42;16.20;99.90
42489;DHT22;28118;52.388;9.452;2022-10-14T08:57:21;16.30;99.90
42489;DHT22;28118;52.388;9.452;2022-10-14T08:59:49;16.60;99.90
42489;DHT22;28118;52.388;9.452;2022-10-14T09:05:03;16.20;99.90
42489;DHT22;28118;52.388;9.452;2022-10-14T09:07:32;16.20;99.90
42489;DHT22;28118;52.388;9.452;2022-10-14T09:10:05;15.90;99.90
42489;DHT22;28118;52.388;9.452;2022-10-14T09:12:33;15.90;99.90
42489;DHT22;28118;52.388;9.452;2022-10-14T09:15:24;15.70;99.90
42489;DHT22;28118;52.388;9.452;2022-10-14T09:20:38;15.70;99.90
42489;DHT22;28118;52.388;9.452;2022-10-14T09:23:18;15.50;99.90
42489;DHT22;28118;52.388;9.452;2022-10-14T09:25:58;15.40;99.90
42489;DHT22;28118;52.388;9.452;2022-10-14T09:28:37;15.50;99.90
42489;DHT22;28118;52.388;9.452;2022-10-14T09:31:06;15.60;99.90
42489;DHT22;28118;52.388;9.452;2022-10-14T09:33:36;15.60;99.90
42489;DHT22;28118;52.388;9.452;2022-10-14T09:36:26;15.90;99.90
42489;DHT22;28118;52.388;9.452;2022-10-14T09:38:54;16.10;99.90
42489;DHT22;28118;52.388;9.452;2022-10-14T09:41:29;16.30;99.90
42489;DHT22;28118;52.388;9.452;2022-10-14T09:44:22;16.40;99.90
42489;DHT22;28118;52.388;9.452;2022-10-14T09:50:47;16.60;99.90
42489;DHT22;28118;52.388;9.452;2022-10-14T09:53:16;16.60;99.90
42489;DHT22;28118;52.388;9.452;2022-10-14T09:55:50;16.70;99.90
42489;DHT22;28118;52.388;9.452;2022-10-14T09:58:28;17.00;99.90
42489;DHT22;28118;52.388;9.452;2022-10-14T10:00:57;16.90;99.90
42489;DHT22;28118;52.388;9.452;2022-10-14T10:06:05;17.10;99.90
42489;DHT22;28118;52.388;9.452;2022-10-14T10:08:37;17.20;99.90
42489;DHT22;28118;52.388;9.452;2022-10-14T10:11:07;17.40;99.90
42489;DHT22;28118;52.388;9.452;2022-10-14T10:13:39;17.50;99.90
42489;DHT22;28118;52.388;9.452;2022-10-14T10:16:22;17.90;99.90
42489;DHT22;28118;52.388;9.452;2022-10-14T10:18:50;18.20;99.90
42489;DHT22;28118;52.388;9.452;2022-10-14T10:21:28;18.20;99.90
42489;DHT22;28118;52.388;9.452;2022-10-14T10:24:00;18.20;99.90
42489;DHT22;28118;52.388;9.452;2022-10-14T10:26:31;18.20;99.90
42489;DHT22;28118;52.388;9.452;2022-10-14T10:29:01;18.30;99.90
42489;DHT22;28118;52.388;9.452;2022-10-14T10:36:34;17.60;99.90
42489;DHT22;28118;52.388;9.452;2022-10-14T10:42:26;18.30;99.90
42489;DHT22;28118;52.388;9.452;2022-10-14T10:45:15;18.60;99.90
42489;DHT22;28118;52.388;9.452;2022-10-14T10:56:11;17.90;99.90
42489;DHT22;28118;52.388;9.452;2022-10-14T11:04:02;17.80;99.90
42489;DHT22;28118;52.388;9.452;2022-10-14T11:07:22;17.90;99.90
42489;DHT22;28118;52.388;9.452;2022-10-14T11:13:03;17.70;99.90
42489;DHT22;28118;52.388;9.452;2022-10-14T11:15:42;17.60;99.90
42489;DHT22;28118;52.388;9.452;2022-10-14T11:18:48;17.30;99.90
42489;DHT22;28118;52.388;9.452;2022-10-14T11:24:20;17.40;99.90
42489;DHT22;28118;52.388;9.452;2022-10-14T11:29:35;17.70;99.90
42489;DHT22;28118;52.388;9.452;2022-10-14T11:46:19;17.90;99.90
42489;DHT22;28118;52.388;9.452;2022-10-14T11:53:46;17.50;99.90
42489;DHT22;28118;52.388;9.452;2022-10-14T12:02:07;16.90;99.90
42489;DHT22;28118;52.388;9.452;2022-10-14T12:04:40;16.90;99.90
42489;DHT22;28118;52.388;9.452;2022-10-14T12:07:16;17.00;99.90
42489;DHT22;28118;52.388;9.452;2022-10-14T12:10:18;17.10;99.90
42489;DHT22;28118;52.388;9.452;2022-10-14T12:12:48;17.10;99.90
42489;DHT22;28118;52.388;9.452;2022-10-14T12:15:19;17.20;99.90
42489;DHT22;28118;52.388;9.452;2022-10-14T12:17:56;17.10;99.90
42489;DHT22;28118;52.388;9.452;2022-10-14T12:20:48;17.10;99.90
42489;DHT22;28118;52.388;9.452;2022-10-14T12:23:33;17.10;99.90
42489;DHT22;28118;52.388;9.452;2022-10-14T12:28:50;17.00;99.90
42489;DHT22;28118;52.388;9.452;2022-10-14T12:31:37;17.00;99.90
42489;DHT22;28118;52.388;9.452;2022-10-14T12:36:47;17.30;99.90
42489;DHT22;28118;52.388;9.452;2022-10-14T12:44:25;17.60;99.90
42489;DHT22;28118;52.388;9.452;2022-10-14T12:46:53;17.60;99.90
42489;DHT22;28118;52.388;9.452;2022-10-14T12:49:30;17.60;99.90
42489;DHT22;28118;52.388;9.452;2022-10-14T12:52:00;17.60;99.90
42489;DHT22;28118;52.388;9.452;2022-10-14T12:54:29;17.50;99.90
42489;DHT22;28118;52.388;9.452;2022-10-14T12:56:57;17.40;99.90
42489;DHT22;28118;52.388;9.452;2022-10-14T12:59:36;17.40;99.90
42489;DHT22;28118;52.388;9.452;2022-10-14T13:05:04;17.50;99.90
42489;DHT22;28118;52.388;9.452;2022-10-14T13:07:43;17.60;99.90
42489;DHT22;28118;52.388;9.452;2022-10-14T13:10:27;17.60;99.90
42489;DHT22;28118;52.388;9.452;2022-10-14T13:18:57;17.60;99.90
42489;DHT22;28118;52.388;9.452;2022-10-14T13:24:15;17.60;99.90
42489;DHT22;28118;52.388;9.452;2022-10-14T13:29:15;17.50;99.90
42489;DHT22;28118;52.388;9.452;2022-10-14T13:35:12;17.40;99.90
42489;DHT22;28118;52.388;9.452;2022-10-14T13:37:44;17.30;99.90
42489;DHT22;28118;52.388;9.452;2022-10-14T13:40:24;17.40;99.90
42489;DHT22;28118;52.388;9.452;2022-10-14T13:43:05;17.30;99.90
42489;DHT22;28118;52.388;9.452;2022-10-14T13:45:39;17.40;99.90
42489;DHT22;28118;52.388;9.452;2022-10-14T13:48:20;17.30;99.90
42489;DHT22;28118;52.388;9.452;2022-10-14T13:50:52;17.30;99.90
42489;DHT22;28118;52.388;9.452;2022-10-14T13:54:43;17.30;99.90
42489;DHT22;28118;52.388;9.452;2022-10-14T13:56:38;17.30;99.90
42489;DHT22;28118;52.388;9.452;2022-10-14T13:59:20;17.30;99.90
42489;DHT22;28118;52.388;9.452;2022-10-14T14:02:28;17.20;99.90
42489;DHT22;28118;52.388;9.452;2022-10-14T14:04:56;17.10;99.90
42489;DHT22;28118;52.388;9.452;2022-10-14T14:07:32;17.10;99.90
42489;DHT22;28118;52.388;9.452;2022-10-14T14:10:23;17.10;99.90
42489;DHT22;28118;52.388;9.452;2022-10-14T14:12:50;17.00;99.90
42489;DHT22;28118;52.388;9.452;2022-10-14T14:15:25;17.00;99.90
42489;DHT22;28118;52.388;9.452;2022-10-14T14:17:53;16.90;99.90
42489;DHT22;28118;52.388;9.452;2022-10-14T14:20:26;16.90;99.90
42489;DHT22;28118;52.388;9.452;2022-10-14T14:22:59;16.90;99.90
42489;DHT22;28118;52.388;9.452;2022-10-14T14:25:27;16.80;99.90
42489;DHT22;28118;52.388;9.452;2022-10-14T14:28:02;16.80;99.90
42489;DHT22;28118;52.388;9.452;2022-10-14T14:30:33;16.80;99.90
42489;DHT22;28118;52.388;9.452;2022-10-14T14:33:10;16.80;99.90
42489;DHT22;28118;52.388;9.452;2022-10-14T14:35:37;16.80;99.90
42489;DHT22;28118;52.388;9.452;2022-10-14T14:38:04;16.80;99.90
42489;DHT22;28118;52.388;9.452;2022-10-14T14:40:59;16.80;99.90
42489;DHT22;28118;52.388;9.452;2022-10-14T14:43:27;16.80;99.90
42489;DHT22;28118;52.388;9.452;2022-10-14T14:46:01;16.70;99.90
42489;DHT22;28118;52.388;9.452;2022-10-14T14:48:30;16.70;99.90
42489;DHT22;28118;52.388;9.452;2022-10-14T14:50:58;16.70;99.90
42489;DHT22;28118;52.388;9.452;2022-10-14T14:53:26;16.70;99.90
42489;DHT22;28118;52.388;9.452;2022-10-14T14:58:43;16.90;99.90
42489;DHT22;28118;52.388;9.452;2022-10-14T15:01:21;16.90;99.90
42489;DHT22;28118;52.388;9.452;2022-10-14T15:04:00;16.80;99.90
42489;DHT22;28118;52.388;9.452;2022-10-14T15:06:41;16.80;99.90
42489;DHT22;28118;52.388;9.452;2022-10-14T15:09:21;16.80;99.90
42489;DHT22;28118;52.388;9.452;2022-10-14T15:11:52;16.70;99.90
42489;DHT22;28118;52.388;9.452;2022-10-14T15:14:44;16.60;99.90
42489;DHT22;28118;52.388;9.452;2022-10-14T15:17:38;16.50;99.90
42489;DHT22;28118;52.388;9.452;2022-10-14T15:20:27;16.40;99.90
42489;DHT22;28118;52.388;9.452;2022-10-14T15:22:54;16.40;99.90
42489;DHT22;28118;52.388;9.452;2022-10-14T15:25:23;16.30;99.90
42489;DHT22;28118;52.388;9.452;2022-10-14T15:27:58;16.30;99.90
42489;DHT22;28118;52.388;9.452;2022-10-14T15:30:29;16.30;99.90
42489;DHT22;28118;52.388;9.452;2022-10-14T15:35:28;16.20;99.90
42489;DHT22;28118;52.388;9.452;2022-10-14T15:37:55;16.10;99.90
42489;DHT22;28118;52.388;9.452;2022-10-14T15:40:28;16.10;99.90
42489;DHT22;28118;52.388;9.452;2022-10-14T15:42:56;16.10;99.90
42489;DHT22;28118;52.388;9.452;2022-10-14T15:45:24;16.10;99.90
42489;DHT22;28118;52.388;9.452;2022-10-14T15:47:56;16.10;99.90
42489;DHT22;28118;52.388;9.452;2022-10-14T15:50:28;16.00;99.90
42489;DHT22;28118;52.388;9.452;2022-10-14T15:52:55;16.00;99.90
42489;DHT22;28118;52.388;9.452;2022-10-14T15:55:24;16.00;99.90
42489;DHT22;28118;52.388;9.452;2022-10-14T15:57:52;16.00;99.90
42489;DHT22;28118;52.388;9.452;2022-10-14T16:00:21;16.00;99.90
42489;DHT22;28118;52.388;9.452;2022-10-14T16:02:50;15.90;99.90
42489;DHT22;28118;52.388;9.452;2022-10-14T16:05:20;15.90;99.90
42489;DHT22;28118;52.388;9.452;2022-10-14T16:07:47;15.90;99.90
42489;DHT22;28118;52.388;9.452;2022-10-14T16:10:18;15.90;99.90
42489;DHT22;28118;52.388;9.452;2022-10-14T16:12:45;15.80;99.90
42489;DHT22;28118;52.388;9.452;2022-10-14T16:15:19;15.80;99.90
42489;DHT22;28118;52.388;9.452;2022-10-14T16:17:47;15.80;99.90
42489;DHT22;28118;52.388;9.452;2022-10-14T16:20:19;15.80;99.90
42489;DHT22;28118;52.388;9.452;2022-10-14T16:22:46;15.80;99.90
42489;DHT22;28118;52.388;9.452;2022-10-14T16:25:37;15.70;99.90
42489;DHT22;28118;52.388;9.452;2022-10-14T16:28:06;15.70;99.90
42489;DHT22;28118;52.388;9.452;2022-10-14T16:30:38;15.60;99.90
42489;DHT22;28118;52.388;9.452;2022-10-14T16:33:05;15.60;99.90
42489;DHT22;28118;52.388;9.452;2022-10-14T16:35:32;15.60;99.90
42489;DHT22;28118;52.388;9.452;2022-10-14T16:37:59;15.50;99.90
42489;DHT22;28118;52.388;9.452;2022-10-14T16:40:25;15.50;99.90
42489;DHT22;28118;52.388;9.452;2022-10-14T16:42:52;15.50;99.90
42489;DHT22;28118;52.388;9.452;2022-10-14T16:45:18;15.50;99.90
42489;DHT22;28118;52.388;9.452;2022-10-14T16:47:45;15.40;99.90
42489;DHT22;28118;52.388;9.452;2022-10-14T16:50:12;15.40;99.90
42489;DHT22;28118;52.388;9.452;2022-10-14T16:52:39;15.50;99.90
42489;DHT22;28118;52.388;9.452;2022-10-14T16:55:30;15.40;99.90
42489;DHT22;28118;52.388;9.452;2022-10-14T16:57:57;15.40;99.90
42489;DHT22;28118;52.388;9.452;2022-10-14T17:00:24;15.40;99.90
42489;DHT22;28118;52.388;9.452;2022-10-14T17:02:50;15.40;99.90
42489;DHT22;28118;52.388;9.452;2022-10-14T17:05:17;15.30;99.90
42489;DHT22;28118;52.388;9.452;2022-10-14T17:07:43;15.30;99.90
42489;DHT22;28118;52.388;9.452;2022-10-14T17:10:11;15.20;99.90
42489;DHT22;28118;52.388;9.452;2022-10-14T17:12:38;15.20;99.90
42489;DHT22;28118;52.388;9.452;2022-10-14T17:15:05;15.10;99.90
42489;DHT22;28118;52.388;9.452;2022-10-14T17:17:31;15.10;99.90
42489;DHT22;28118;52.388;9.452;2022-10-14T17:19:58;15.10;99.90
42489;DHT22;28118;52.388;9.452;2022-10-14T17:22:25;15.00;99.90
42489;DHT22;28118;52.388;9.452;2022-10-14T17:24:52;15.00;99.90
42489;DHT22;28118;52.388;9.452;2022-10-14T17:27:19;15.00;99.90
42489;DHT22;28118;52.388;9.452;2022-10-14T17:29:49;14.90;99.90
42489;DHT22;28118;52.388;9.452;2022-10-14T17:32:17;14.90;99.90
42489;DHT22;28118;52.388;9.452;2022-10-14T17:34:43;14.90;99.90
42489;DHT22;28118;52.388;9.452;2022-10-14T17:37:10;14.90;99.90
42489;DHT22;28118;52.388;9.452;2022-10-14T17:39:37;14.90;99.90
42489;DHT22;28118;52.388;9.452;2022-10-14T17:42:03;14.80;99.90
42489;DHT22;28118;52.388;9.452;2022-10-14T17:44:30;14.80;99.90
42489;DHT22;28118;52.388;9.452;2022-10-14T17:46:58;14.80;99.90
42489;DHT22;28118;52.388;9.452;2022-10-14T17:49:25;14.80;99.90
42489;DHT22;28118;52.388;9.452;2022-10-14T17:51:52;14.70;99.90
42489;DHT22;28118;52.388;9.452;2022-10-14T17:54:19;14.70;99.90
42489;DHT22;28118;52.388;9.452;2022-10-14T17:56:45;14.60;99.90
42489;DHT22;28118;52.388;9.452;2022-10-14T17:59:12;14.60;99.90
42489;DHT22;28118;52.388;9.452;2022-10-14T18:01:39;14.50;99.90
42489;DHT22;28118;52.388;9.452;2022-10-14T18:04:26;14.50;99.90
42489;DHT22;28118;52.388;9.452;2022-10-14T18:06:53;14.50;99.90
42489;DHT22;28118;52.388;9.452;2022-10-14T18:09:19;14.40;99.90
42489;DHT22;28118;52.388;9.452;2022-10-14T18:11:46;14.40;99.90